Time;durP1;ratioP1;P1;durP2;ratioP2;P2;SDS_P1;SDS_P2;PMS_P1;PMS_P2;Temp;Humidity;BMP_temperature;BMP_pressure;BME280_temperature;BME280_humidity;BME280_pressure;Samples;Min_cycle;Max_cycle;Signal;HPM_P1;HPM_P2
2023/12/09 00:00:31;;;;;;;49.17;23.00;;;;;;;;;;5097291;28;20024;-73
2023/12/09 00:03:16;;;;;;;49.10;22.60;;;;;;;;;;5081823;28;20043;-72
2023/12/09 00:06:02;;;;;;;45.63;22.58;;;;;;;;;;5097286;28;20062;-71
2023/12/09 00:08:48;;;;;;;48.10;22.33;;;;;;;;;;5081437;28;20512;-69
2023/12/09 00:11:34;;;;;;;47.08;22.73;;;;;;;;;;5096457;28;20028;-71
2023/12/09 00:14:20;;;;;;;45.83;21.50;;;;;;;;;;5081618;28;20027;-75
2023/12/09 00:17:05;;;;;;;49.38;22.08;;;;;;;;;;5081467;28;20491;-71
2023/12/09 00:19:51;;;;;;;46.72;21.85;;;;;;;;;;5095890;28;20107;-72
2023/12/09 00:22:38;;;;;;;43.40;21.40;;;;;;;;;;5096455;28;20016;-70
2023/12/09 00:25:24;;;;;;;50.78;22.67;;;;;;;;;;5096004;28;20036;-73
2023/12/09 00:28:09;;;;;;;43.80;22.08;;;;;;;;;;5095927;28;20031;-74
2023/12/09 00:30:55;;;;;;;41.50;20.55;;;;;;;;;;5096071;28;20020;-72
2023/12/09 00:33:41;;;;;;;45.47;21.42;;;;;;;;;;5081379;28;20111;-72
2023/12/09 00:36:26;;;;;;;46.85;21.40;;;;;;;;;;5095996;28;20066;-71
2023/12/09 00:39:12;;;;;;;44.72;21.15;;;;;;;;;;5095622;28;20023;-71
2023/12/09 00:41:57;;;;;;;44.38;21.00;;;;;;;;;;5095667;28;20039;-72
2023/12/09 00:44:43;;;;;;;41.90;19.88;;;;;;;;;;5095314;28;20047;-71
2023/12/09 00:47:28;;;;;;;43.75;20.92;;;;;;;;;;5095540;28;20016;-71
2023/12/09 00:50:17;;;;;;;44.08;19.95;;;;;;;;;;5094806;28;20099;-70
2023/12/09 00:53:02;;;;;;;42.00;19.58;;;;;;;;;;5080373;28;20020;-70
2023/12/09 00:55:48;;;;;;;45.17;20.65;;;;;;;;;;5084513;28;20024;-71
2023/12/09 00:58:34;;;;;;;41.15;19.70;;;;;;;;;;5096887;28;20125;-70
2023/12/09 01:01:19;;;;;;;42.85;20.10;;;;;;;;;;5080368;28;20012;-70
2023/12/09 01:04:05;;;;;;;39.28;19.90;;;;;;;;;;5095101;28;20508;-69
2023/12/09 01:06:51;;;;;;;38.45;18.58;;;;;;;;;;5080375;28;20460;-71
2023/12/09 01:09:36;;;;;;;39.20;18.77;;;;;;;;;;5094993;28;20028;-70
2023/12/09 01:12:22;;;;;;;37.80;18.45;;;;;;;;;;5080386;28;20166;-70
2023/12/09 01:15:08;;;;;;;38.65;19.42;;;;;;;;;;5080301;28;20054;-68
2023/12/09 01:17:54;;;;;;;46.47;19.38;;;;;;;;;;5081522;28;20058;-68
2023/12/09 01:20:39;;;;;;;42.53;19.67;;;;;;;;;;5095004;28;20085;-71
2023/12/09 01:23:25;;;;;;;40.67;19.17;;;;;;;;;;5095008;28;20099;-70
2023/12/09 01:26:11;;;;;;;41.10;19.95;;;;;;;;;;5095141;28;20055;-73
2023/12/09 01:28:59;;;;;;;37.67;19.05;;;;;;;;;;5080276;28;20031;-71
2023/12/09 01:31:45;;;;;;;43.47;19.70;;;;;;;;;;5080193;28;20024;-71
2023/12/09 01:34:30;;;;;;;42.65;20.20;;;;;;;;;;5095119;28;20037;-72
2023/12/09 01:37:18;;;;;;;45.95;21.13;;;;;;;;;;5094329;28;20099;-71
2023/12/09 01:40:04;;;;;;;45.75;20.17;;;;;;;;;;5094565;28;20445;-69
2023/12/09 01:42:50;;;;;;;44.95;20.05;;;;;;;;;;5093395;28;20024;-71
2023/12/09 01:45:35;;;;;;;42.78;20.35;;;;;;;;;;5095073;28;20097;-71
2023/12/09 01:48:21;;;;;;;45.75;20.52;;;;;;;;;;5093095;28;20337;-70
2023/12/09 01:51:07;;;;;;;45.15;21.27;;;;;;;;;;5070128;28;20059;-71
2023/12/09 01:53:53;;;;;;;42.13;20.52;;;;;;;;;;5073544;28;20036;-71
2023/12/09 01:56:39;;;;;;;42.20;20.25;;;;;;;;;;5074215;28;20021;-68
2023/12/09 01:59:24;;;;;;;42.08;18.88;;;;;;;;;;5074856;28;20099;-70
2023/12/09 02:02:10;;;;;;;42.00;21.33;;;;;;;;;;5059136;28;20015;-71
2023/12/09 02:04:56;;;;;;;38.97;19.10;;;;;;;;;;5074366;28;20033;-72
2023/12/09 02:07:41;;;;;;;42.38;19.83;;;;;;;;;;5073683;28;20488;-72
2023/12/09 02:10:27;;;;;;;45.75;20.80;;;;;;;;;;5075122;28;20028;-74
2023/12/09 02:13:23;;;;;;;44.28;20.10;;;;;;;;;;5074315;28;20043;-72
2023/12/09 02:16:11;;;;;;;43.33;19.60;;;;;;;;;;5073332;28;20020;-71
2023/12/09 02:18:57;;;;;;;45.88;20.67;;;;;;;;;;5057739;28;20074;-72
2023/12/09 02:22:03;;;;;;;42.92;20.10;;;;;;;;;;5061548;28;20059;-72
2023/12/09 02:24:49;;;;;;;44.20;20.83;;;;;;;;;;5079695;28;20020;-74
2023/12/09 02:27:54;;;;;;;38.70;19.80;;;;;;;;;;5081533;28;20342;-72
2023/12/09 02:30:39;;;;;;;41.78;19.95;;;;;;;;;;5081027;28;20029;-71
2023/12/09 02:33:25;;;;;;;42.78;19.92;;;;;;;;;;5081734;28;20052;-71
2023/12/09 02:36:15;;;;;;;41.10;19.02;;;;;;;;;;5066187;28;20364;-71
2023/12/09 02:39:03;;;;;;;43.55;20.30;;;;;;;;;;5064219;28;20417;-72
2023/12/09 02:41:52;;;;;;;44.72;20.05;;;;;;;;;;5080731;28;20029;-72
2023/12/09 02:44:40;;;;;;;41.92;19.52;;;;;;;;;;5080123;28;20056;-71
2023/12/09 02:47:26;;;;;;;46.53;21.92;;;;;;;;;;5065558;28;20035;-71
2023/12/09 02:50:11;;;;;;;44.95;20.75;;;;;;;;;;5080649;28;20498;-69
2023/12/09 02:52:57;;;;;;;38.78;19.20;;;;;;;;;;5081244;28;20029;-76
2023/12/09 02:55:43;;;;;;;42.47;20.33;;;;;;;;;;5065571;28;20112;-75
2023/12/09 02:58:28;;;;;;;45.08;20.33;;;;;;;;;;5066209;28;20016;-73
2023/12/09 03:01:14;;;;;;;49.67;22.08;;;;;;;;;;5065767;28;20416;-72
2023/12/09 03:04:00;;;;;;;42.88;20.48;;;;;;;;;;5065829;28;20058;-72
2023/12/09 03:06:45;;;;;;;44.50;21.02;;;;;;;;;;5080452;28;20025;-71
2023/12/09 03:09:31;;;;;;;43.42;20.77;;;;;;;;;;5081164;28;20052;-72
2023/12/09 03:12:16;;;;;;;46.15;20.85;;;;;;;;;;5081417;28;20036;-69
2023/12/09 03:15:05;;;;;;;44.60;19.98;;;;;;;;;;5067006;28;20036;-72
2023/12/09 03:17:50;;;;;;;43.17;21.08;;;;;;;;;;5080615;28;20095;-73
2023/12/09 03:20:36;;;;;;;45.38;20.40;;;;;;;;;;5081461;28;20032;-73
2023/12/09 03:23:22;;;;;;;46.67;21.38;;;;;;;;;;5082033;28;20096;-72
2023/12/09 03:26:17;;;;;;;48.33;21.02;;;;;;;;;;5067060;28;20024;-72
2023/12/09 03:29:03;;;;;;;52.17;22.02;;;;;;;;;;5065122;28;20461;-71
2023/12/09 03:31:48;;;;;;;52.53;21.52;;;;;;;;;;5066485;28;20475;-72
2023/12/09 03:34:34;;;;;;;47.63;20.98;;;;;;;;;;5075978;28;20073;-74
2023/12/09 03:37:19;;;;;;;46.85;21.00;;;;;;;;;;5076576;28;20100;-72
2023/12/09 03:40:05;;;;;;;47.35;22.08;;;;;;;;;;5076687;28;20025;-71
2023/12/09 03:42:51;;;;;;;46.95;21.83;;;;;;;;;;5076357;28;20016;-70
2023/12/09 03:45:36;;;;;;;48.10;21.48;;;;;;;;;;5077855;28;20067;-71
2023/12/09 03:48:22;;;;;;;52.50;22.75;;;;;;;;;;5076706;28;20412;-72
2023/12/09 03:51:08;;;;;;;48.78;22.00;;;;;;;;;;5077085;28;20049;-70
2023/12/09 03:53:54;;;;;;;52.38;22.13;;;;;;;;;;5076948;28;20039;-73
2023/12/09 03:56:39;;;;;;;53.65;22.83;;;;;;;;;;5076606;28;20040;-71
2023/12/09 03:59:25;;;;;;;52.80;22.02;;;;;;;;;;5077062;28;20361;-70
2023/12/09 04:02:11;;;;;;;50.28;22.00;;;;;;;;;;5078061;28;20108;-71
2023/12/09 04:04:56;;;;;;;48.90;21.70;;;;;;;;;;5076953;28;20090;-72
2023/12/09 04:07:42;;;;;;;55.60;22.60;;;;;;;;;;5075889;28;20468;-71
2023/12/09 04:10:28;;;;;;;53.28;23.40;;;;;;;;;;5076914;28;20032;-72
2023/12/09 04:13:13;;;;;;;49.75;23.25;;;;;;;;;;5076611;28;20135;-72
2023/12/09 04:15:59;;;;;;;52.35;21.88;;;;;;;;;;5075888;28;20392;-72
2023/12/09 04:18:45;;;;;;;52.13;22.15;;;;;;;;;;5076159;28;20008;-72
2023/12/09 04:21:31;;;;;;;45.10;20.98;;;;;;;;;;5076423;28;20406;-73
2023/12/09 04:24:17;;;;;;;53.22;22.02;;;;;;;;;;5076555;28;20040;-74
2023/12/09 04:27:02;;;;;;;53.80;22.52;;;;;;;;;;5074918;28;20025;-74
2023/12/09 04:29:49;;;;;;;51.53;22.33;;;;;;;;;;5074975;28;20041;-75
2023/12/09 04:32:35;;;;;;;45.97;20.45;;;;;;;;;;5073945;28;20035;-73
2023/12/09 04:35:21;;;;;;;42.95;19.25;;;;;;;;;;5075154;28;20024;-73
2023/12/09 04:38:06;;;;;;;48.40;19.48;;;;;;;;;;5074835;28;20127;-72
2023/12/09 04:40:52;;;;;;;47.90;21.08;;;;;;;;;;5074521;28;20086;-73
2023/12/09 04:43:38;;;;;;;47.45;19.80;;;;;;;;;;5074484;28;20437;-72
2023/12/09 04:46:24;;;;;;;51.45;20.95;;;;;;;;;;5076032;28;20032;-74
2023/12/09 04:49:10;;;;;;;49.40;21.20;;;;;;;;;;5074681;28;20107;-72
2023/12/09 04:51:56;;;;;;;48.95;20.95;;;;;;;;;;5078703;28;20483;-71
2023/12/09 04:54:41;;;;;;;49.30;20.85;;;;;;;;;;5095670;28;20031;-70
2023/12/09 04:57:27;;;;;;;51.20;21.45;;;;;;;;;;5094734;28;20054;-70
2023/12/09 05:00:13;;;;;;;52.58;20.95;;;;;;;;;;5095630;28;20028;-70
2023/12/09 05:02:58;;;;;;;50.15;21.08;;;;;;;;;;5094818;28;20414;-73
2023/12/09 05:05:44;;;;;;;47.33;20.38;;;;;;;;;;5094175;28;20341;-73
2023/12/09 05:08:30;;;;;;;44.55;20.10;;;;;;;;;;5093970;28;20020;-72
2023/12/09 05:11:15;;;;;;;44.00;19.50;;;;;;;;;;5080663;28;20039;-74
2023/12/09 05:14:01;;;;;;;43.80;18.88;;;;;;;;;;5080667;28;20117;-75
2023/12/09 05:16:47;;;;;;;46.17;19.73;;;;;;;;;;5095186;28;20165;-71
2023/12/09 05:19:32;;;;;;;43.83;19.08;;;;;;;;;;5080828;28;20020;-70
2023/12/09 05:22:18;;;;;;;46.10;19.92;;;;;;;;;;5096650;28;20020;-73
2023/12/09 05:25:04;;;;;;;44.70;19.13;;;;;;;;;;5095630;28;20028;-72
2023/12/09 05:27:50;;;;;;;40.78;18.60;;;;;;;;;;5080498;28;20020;-73
2023/12/09 05:30:36;;;;;;;40.65;18.77;;;;;;;;;;5096286;28;20102;-71
2023/12/09 05:33:22;;;;;;;45.67;18.95;;;;;;;;;;5096091;28;20036;-75
2023/12/09 05:36:08;;;;;;;44.00;18.73;;;;;;;;;;5081486;28;20108;-74
2023/12/09 05:38:53;;;;;;;42.58;18.92;;;;;;;;;;5095354;28;20058;-73
2023/12/09 05:41:40;;;;;;;41.90;18.85;;;;;;;;;;5081209;28;20034;-73
2023/12/09 05:44:26;;;;;;;38.67;17.58;;;;;;;;;;5094838;28;20023;-73
2023/12/09 05:47:12;;;;;;;39.97;17.50;;;;;;;;;;5080958;28;20035;-73
2023/12/09 05:49:57;;;;;;;40.33;17.17;;;;;;;;;;5094995;28;20080;-74
2023/12/09 05:52:43;;;;;;;39.65;17.48;;;;;;;;;;5095655;28;20024;-72
2023/12/09 05:55:28;;;;;;;35.78;17.10;;;;;;;;;;5080843;28;20160;-73
2023/12/09 05:58:14;;;;;;;40.78;17.42;;;;;;;;;;5096066;28;20024;-73
2023/12/09 06:01:00;;;;;;;35.33;17.02;;;;;;;;;;5095259;28;20020;-73
2023/12/09 06:03:45;;;;;;;33.33;15.68;;;;;;;;;;5096192;28;20051;-72
2023/12/09 06:06:31;;;;;;;38.67;17.95;;;;;;;;;;5080586;28;20031;-73
2023/12/09 06:09:17;;;;;;;36.67;16.23;;;;;;;;;;5081587;28;20016;-72
2023/12/09 06:12:02;;;;;;;41.28;16.98;;;;;;;;;;5079812;28;20027;-73
2023/12/09 06:14:48;;;;;;;35.60;16.40;;;;;;;;;;5094393;28;20024;-72
2023/12/09 06:17:33;;;;;;;39.75;17.15;;;;;;;;;;5079787;28;20099;-75
2023/12/09 06:20:19;;;;;;;38.97;16.10;;;;;;;;;;5080977;28;20024;-75
2023/12/09 06:23:05;;;;;;;36.10;17.35;;;;;;;;;;5080755;28;20031;-76
2023/12/09 06:25:51;;;;;;;37.55;16.95;;;;;;;;;;5094733;28;20089;-76
2023/12/09 06:28:36;;;;;;;37.50;16.38;;;;;;;;;;5079938;28;20024;-76
2023/12/09 06:31:22;;;;;;;45.50;19.38;;;;;;;;;;5079835;28;20030;-76
2023/12/09 06:34:08;;;;;;;43.50;17.23;;;;;;;;;;5096674;28;20043;-75
2023/12/09 06:36:53;;;;;;;42.35;18.23;;;;;;;;;;5095456;28;20024;-76
2023/12/09 06:39:39;;;;;;;41.90;18.33;;;;;;;;;;5080121;28;20055;-76
2023/12/09 06:42:24;;;;;;;41.83;18.38;;;;;;;;;;5094113;28;20016;-76
2023/12/09 06:45:11;;;;;;;41.40;18.35;;;;;;;;;;5096090;28;20024;-76
2023/12/09 06:47:56;;;;;;;42.70;17.83;;;;;;;;;;5093447;28;20052;-77
2023/12/09 06:50:43;;;;;;;39.08;17.92;;;;;;;;;;5095077;28;20044;-75
2023/12/09 06:53:28;;;;;;;42.53;18.55;;;;;;;;;;5094150;28;20111;-75
2023/12/09 06:56:17;;;;;;;43.67;18.70;;;;;;;;;;5094978;28;20028;-75
2023/12/09 06:59:03;;;;;;;39.70;17.45;;;;;;;;;;5096471;28;20068;-76
2023/12/09 07:01:49;;;;;;;37.78;17.55;;;;;;;;;;5098691;28;20051;-72
2023/12/09 07:04:38;;;;;;;42.58;18.05;;;;;;;;;;5095840;28;20062;-73
2023/12/09 07:07:23;;;;;;;40.83;17.92;;;;;;;;;;5098352;28;20030;-73
2023/12/09 07:10:09;;;;;;;36.05;17.17;;;;;;;;;;5098669;28;20032;-72
2023/12/09 07:12:55;;;;;;;36.67;18.23;;;;;;;;;;5102578;28;20043;-74
2023/12/09 07:15:40;;;;;;;38.85;17.23;;;;;;;;;;5098027;28;20309;-72
2023/12/09 07:19:07;;;;;;;63.25;18.88;;;;;;;;;;5085496;28;20095;-73
2023/12/09 07:21:52;;;;;;;42.10;16.40;;;;;;;;;;5099323;28;20449;-73
2023/12/09 07:24:38;;;;;;;39.22;17.17;;;;;;;;;;5098317;28;20028;-73
2023/12/09 07:27:23;;;;;;;35.47;17.55;;;;;;;;;;5083982;28;20016;-73
2023/12/09 07:30:09;;;;;;;54.15;18.92;;;;;;;;;;5097614;28;20048;-73
2023/12/09 07:33:07;;;;;;;46.58;18.48;;;;;;;;;;5097700;28;20080;-74
2023/12/09 07:35:53;;;;;;;52.22;18.00;;;;;;;;;;5096974;28;20020;-73
2023/12/09 07:38:38;;;;;;;58.60;18.27;;;;;;;;;;5096507;28;20031;-72
2023/12/09 07:41:24;;;;;;;44.85;19.60;;;;;;;;;;5097449;28;20048;-73
2023/12/09 07:44:10;;;;;;;53.40;24.80;;;;;;;;;;5098090;28;20026;-72
2023/12/09 07:46:55;;;;;;;49.67;23.38;;;;;;;;;;5095749;28;20024;-72
2023/12/09 07:49:42;;;;;;;44.33;21.30;;;;;;;;;;5097503;28;20465;-72
2023/12/09 07:52:27;;;;;;;41.90;20.08;;;;;;;;;;5097239;28;20051;-73
2023/12/09 07:55:13;;;;;;;41.05;21.52;;;;;;;;;;5098767;28;20025;-72
2023/12/09 07:57:59;;;;;;;41.92;18.63;;;;;;;;;;5083706;28;20020;-72
2023/12/09 08:00:44;;;;;;;45.03;18.13;;;;;;;;;;5098536;28;20089;-72
2023/12/09 08:03:39;;;;;;;35.85;17.88;;;;;;;;;;5097601;28;20016;-73
2023/12/09 08:06:24;;;;;;;38.85;18.67;;;;;;;;;;5083580;28;20028;-73
2023/12/09 08:09:19;;;;;;;41.63;18.35;;;;;;;;;;5084256;28;20115;-74
2023/12/09 08:12:05;;;;;;;38.25;17.85;;;;;;;;;;5097634;28;20119;-73
2023/12/09 08:14:56;;;;;;;38.25;17.58;;;;;;;;;;5083576;28;20345;-73
2023/12/09 08:17:42;;;;;;;38.17;17.63;;;;;;;;;;5083553;28;20024;-74
2023/12/09 08:20:28;;;;;;;42.92;19.20;;;;;;;;;;5096310;28;20031;-72
2023/12/09 08:23:13;;;;;;;38.03;18.42;;;;;;;;;;5097276;28;20017;-72
2023/12/09 08:25:59;;;;;;;36.55;18.02;;;;;;;;;;5097818;28;20028;-70
2023/12/09 08:28:45;;;;;;;38.55;18.30;;;;;;;;;;5097113;28;20279;-72
2023/12/09 08:31:31;;;;;;;37.03;18.05;;;;;;;;;;5101384;28;20031;-73
2023/12/09 08:34:17;;;;;;;41.92;17.60;;;;;;;;;;5098110;28;20020;-71
2023/12/09 08:37:06;;;;;;;35.28;17.60;;;;;;;;;;5099931;28;20092;-75
2023/12/09 08:39:55;;;;;;;39.45;18.23;;;;;;;;;;5100382;28;20314;-76
2023/12/09 08:42:42;;;;;;;39.40;17.83;;;;;;;;;;5099224;28;20375;-76
2023/12/09 08:45:31;;;;;;;33.72;17.02;;;;;;;;;;5099728;28;20356;-73
2023/12/09 08:48:20;;;;;;;36.72;17.30;;;;;;;;;;5101454;28;20024;-74
2023/12/09 08:51:06;;;;;;;35.10;17.48;;;;;;;;;;5085603;28;20047;-72
2023/12/09 08:53:51;;;;;;;34.45;16.70;;;;;;;;;;5096833;28;20348;-73
2023/12/09 08:56:37;;;;;;;31.90;16.13;;;;;;;;;;5081715;28;20449;-71
2023/12/09 08:59:22;;;;;;;65.75;29.33;;;;;;;;;;5081203;28;20369;-72
2023/12/09 09:02:08;;;;;;;34.45;17.77;;;;;;;;;;5096933;28;20020;-73
2023/12/09 09:04:53;;;;;;;35.65;15.98;;;;;;;;;;5096873;28;20020;-72
2023/12/09 09:07:40;;;;;;;36.85;16.83;;;;;;;;;;5082345;28;20119;-72
2023/12/09 09:10:26;;;;;;;34.78;17.60;;;;;;;;;;5096684;28;20432;-73
2023/12/09 09:13:12;;;;;;;31.70;15.43;;;;;;;;;;5081740;28;20059;-72
2023/12/09 09:15:58;;;;;;;37.22;15.88;;;;;;;;;;5082099;28;20488;-73
2023/12/09 09:18:44;;;;;;;30.70;15.10;;;;;;;;;;5096493;28;20445;-71
2023/12/09 09:21:30;;;;;;;29.52;14.88;;;;;;;;;;5080998;28;20039;-72
2023/12/09 09:24:17;;;;;;;36.58;15.73;;;;;;;;;;5080040;28;20030;-73
2023/12/09 09:27:03;;;;;;;33.53;16.45;;;;;;;;;;5095359;28;20020;-72
2023/12/09 09:29:48;;;;;;;31.08;15.88;;;;;;;;;;5096104;28;20039;-72
2023/12/09 09:32:34;;;;;;;33.85;15.50;;;;;;;;;;5096307;28;20030;-71
2023/12/09 09:35:20;;;;;;;36.10;17.13;;;;;;;;;;5094825;28;20047;-71
2023/12/09 09:38:06;;;;;;;31.80;16.13;;;;;;;;;;5080672;28;20030;-73
2023/12/09 09:40:51;;;;;;;36.90;16.63;;;;;;;;;;5080664;28;20020;-73
2023/12/09 09:43:39;;;;;;;34.80;17.27;;;;;;;;;;5080878;28;20048;-74
2023/12/09 09:46:25;;;;;;;34.40;16.42;;;;;;;;;;5080511;28;20052;-73
2023/12/09 09:49:11;;;;;;;34.08;16.80;;;;;;;;;;5094956;28;20020;-72
2023/12/09 09:51:57;;;;;;;35.10;17.35;;;;;;;;;;5094205;28;20036;-72
2023/12/09 09:54:43;;;;;;;38.00;17.02;;;;;;;;;;5094683;28;20028;-73
2023/12/09 09:57:29;;;;;;;30.02;15.10;;;;;;;;;;5094713;28;20039;-72
2023/12/09 10:00:16;;;;;;;33.40;16.20;;;;;;;;;;5081190;28;20413;-72
2023/12/09 10:03:02;;;;;;;38.03;16.77;;;;;;;;;;5094049;28;20055;-72
2023/12/09 10:05:47;;;;;;;35.85;16.70;;;;;;;;;;5094485;28;20081;-72
2023/12/09 10:08:33;;;;;;;32.33;15.55;;;;;;;;;;5080050;28;20024;-72
2023/12/09 10:11:19;;;;;;;29.92;15.10;;;;;;;;;;5095436;28;20020;-73
2023/12/09 10:14:05;;;;;;;34.17;16.10;;;;;;;;;;5081264;28;20098;-72
2023/12/09 10:16:51;;;;;;;33.85;15.98;;;;;;;;;;5095428;28;20478;-73
2023/12/09 10:19:37;;;;;;;29.77;14.20;;;;;;;;;;5095100;28;20028;-72
2023/12/09 10:22:27;;;;;;;27.70;14.82;;;;;;;;;;5080345;28;20016;-73
2023/12/09 10:25:19;;;;;;;33.78;16.67;;;;;;;;;;5081409;28;20353;-74
2023/12/09 10:28:06;;;;;;;33.00;15.43;;;;;;;;;;5093901;28;20464;-69
2023/12/09 10:30:52;;;;;;;33.60;17.10;;;;;;;;;;5104155;28;20449;-72
2023/12/09 10:33:39;;;;;;;37.08;17.98;;;;;;;;;;5097503;28;20424;-71
2023/12/09 10:36:25;;;;;;;36.88;17.67;;;;;;;;;;5078844;28;20024;-72
2023/12/09 10:39:11;;;;;;;33.65;16.10;;;;;;;;;;5094890;28;20016;-72
2023/12/09 10:41:57;;;;;;;35.55;17.38;;;;;;;;;;5081611;28;20017;-72
2023/12/09 10:44:56;;;;;;;34.95;17.25;;;;;;;;;;5100541;28;20027;-70
2023/12/09 10:47:41;;;;;;;33.53;16.10;;;;;;;;;;5097872;28;20016;-71
2023/12/09 10:50:27;;;;;;;33.70;16.38;;;;;;;;;;5098121;28;20040;-71
2023/12/09 10:53:13;;;;;;;32.90;16.25;;;;;;;;;;5084486;28;20020;-70
2023/12/09 10:55:59;;;;;;;28.83;15.13;;;;;;;;;;5098570;28;20028;-71
2023/12/09 10:58:45;;;;;;;31.65;15.23;;;;;;;;;;5086280;28;20115;-71
2023/12/09 11:01:31;;;;;;;31.27;15.30;;;;;;;;;;5097340;28;20361;-70
2023/12/09 11:04:17;;;;;;;32.20;14.50;;;;;;;;;;5083769;28;20024;-70
2023/12/09 11:07:03;;;;;;;29.25;14.52;;;;;;;;;;5098110;28;20357;-70
2023/12/09 11:09:49;;;;;;;29.65;14.73;;;;;;;;;;5083312;28;20020;-71
2023/12/09 11:12:35;;;;;;;35.95;14.93;;;;;;;;;;5098107;28;20092;-70
2023/12/09 11:15:28;;;;;;;31.92;14.30;;;;;;;;;;5082178;28;20047;-70
2023/12/09 11:18:17;;;;;;;29.85;13.85;;;;;;;;;;5083030;28;20008;-69
2023/12/09 11:21:03;;;;;;;32.10;14.35;;;;;;;;;;5082407;28;20344;-71
2023/12/09 11:23:53;;;;;;;36.70;15.10;;;;;;;;;;5098132;28;20031;-72
2023/12/09 11:26:39;;;;;;;28.48;13.90;;;;;;;;;;5097884;28;20086;-72
2023/12/09 11:29:25;;;;;;;29.85;14.40;;;;;;;;;;5097644;28;20024;-71
2023/12/09 11:32:12;;;;;;;29.75;13.88;;;;;;;;;;5097033;28;20129;-72
2023/12/09 11:34:58;;;;;;;27.30;13.35;;;;;;;;;;5097219;28;20028;-70
